createdAt,value
2023-01-26T00:01:44.297Z,18.30
2023-01-26T00:04:15.254Z,18.30
2023-01-26T00:06:46.066Z,18.20
2023-01-26T00:09:20.085Z,18.30
2023-01-26T00:11:51.952Z,18.30
2023-01-26T00:14:22.788Z,18.30
2023-01-26T00:16:54.876Z,18.30
2023-01-26T00:19:25.577Z,18.30
2023-01-26T00:21:56.227Z,18.30
2023-01-26T00:24:27.044Z,18.30
2023-01-26T00:26:57.828Z,18.30
2023-01-26T00:29:28.758Z,18.40
2023-01-26T00:31:59.444Z,18.40
2023-01-26T00:34:36.207Z,18.40
2023-01-26T00:37:08.800Z,18.50
2023-01-26T00:39:41.279Z,18.50
2023-01-26T00:42:12.866Z,18.50
2023-01-26T00:44:45.204Z,18.60
2023-01-26T00:47:16.804Z,18.60
2023-01-26T00:49:48.000Z,18.70
2023-01-26T00:52:19.754Z,18.70
2023-01-26T00:54:51.814Z,18.80
2023-01-26T00:57:23.795Z,18.80
2023-01-26T00:59:56.668Z,18.90
2023-01-26T01:02:26.540Z,19.00
2023-01-26T01:04:57.420Z,19.10
2023-01-26T01:07:28.240Z,19.10
2023-01-26T01:09:59.001Z,19.20
2023-01-26T01:12:30.862Z,19.20
2023-01-26T01:15:01.807Z,19.20
2023-01-26T01:17:32.734Z,19.30
2023-01-26T01:20:03.580Z,19.30
2023-01-26T01:22:37.720Z,19.30
2023-01-26T01:25:09.142Z,19.30
2023-01-26T01:27:40.406Z,19.40
2023-01-26T01:30:13.039Z,19.40
2023-01-26T01:32:46.039Z,19.50
2023-01-26T01:35:18.105Z,19.50
2023-01-26T01:37:48.898Z,19.60
2023-01-26T01:40:22.106Z,19.60
2023-01-26T01:42:52.914Z,19.70
2023-01-26T01:45:38.941Z,19.70
2023-01-26T01:48:11.711Z,19.80
2023-01-26T01:51:02.359Z,19.80
2023-01-26T01:53:43.340Z,19.90
2023-01-26T01:56:16.916Z,20.00
2023-01-26T01:58:49.467Z,20.10
2023-01-26T02:01:20.346Z,20.20
2023-01-26T02:03:53.595Z,20.20
2023-01-26T02:06:29.638Z,20.30
2023-01-26T02:09:01.269Z,20.30
2023-01-26T02:11:37.469Z,20.30
2023-01-26T02:14:13.941Z,20.40
2023-01-26T02:16:44.946Z,20.50
2023-01-26T02:19:23.873Z,20.60
2023-01-26T02:21:56.775Z,20.70
2023-01-26T02:24:32.119Z,20.80
2023-01-26T02:27:03.555Z,20.80
2023-01-26T02:29:34.827Z,20.90
2023-01-26T02:32:05.989Z,21.00
2023-01-26T02:34:39.043Z,21.00
2023-01-26T02:37:12.848Z,21.10
2023-01-26T02:39:50.371Z,21.10
2023-01-26T02:42:39.168Z,21.20
2023-01-26T02:45:12.179Z,21.30
2023-01-26T02:47:45.577Z,21.30
2023-01-26T02:50:17.305Z,21.40
2023-01-26T02:52:48.083Z,21.50
2023-01-26T02:55:26.417Z,21.50
2023-01-26T02:58:05.428Z,21.60
2023-01-26T03:00:39.949Z,21.70
2023-01-26T03:03:13.340Z,21.70
2023-01-26T03:05:47.879Z,21.80
2023-01-26T03:08:19.979Z,21.90
2023-01-26T03:10:50.750Z,21.90
2023-01-26T03:13:21.405Z,22.00
2023-01-26T03:15:56.127Z,22.00
2023-01-26T03:19:07.120Z,22.10
2023-01-26T03:21:55.683Z,22.20
2023-01-26T03:24:44.128Z,22.30
2023-01-26T03:27:30.383Z,22.30
2023-01-26T03:30:01.417Z,22.50
2023-01-26T03:32:32.231Z,22.60
2023-01-26T03:35:04.279Z,22.70
2023-01-26T03:37:36.664Z,22.80
2023-01-26T03:40:26.751Z,22.90
2023-01-26T03:43:15.615Z,23.00
2023-01-26T03:46:04.160Z,23.10
2023-01-26T03:48:52.733Z,23.10
2023-01-26T03:51:42.289Z,23.20
2023-01-26T03:54:31.318Z,23.40
2023-01-26T03:57:02.355Z,23.50
2023-01-26T03:59:52.967Z,23.50
2023-01-26T04:02:41.854Z,23.70
2023-01-26T04:05:30.921Z,23.80
2023-01-26T04:08:27.257Z,24.00
2023-01-26T04:10:58.711Z,24.10
2023-01-26T04:13:47.580Z,24.20
2023-01-26T04:16:35.924Z,24.40
2023-01-26T04:19:24.767Z,24.50
2023-01-26T04:21:56.320Z,24.70
2023-01-26T04:24:27.565Z,24.80
2023-01-26T04:27:02.810Z,25.00
2023-01-26T04:32:11.219Z,25.10
2023-01-26T04:34:42.510Z,25.20
2023-01-26T04:37:14.201Z,25.30
2023-01-26T04:39:45.340Z,25.30
2023-01-26T04:42:16.091Z,25.40
2023-01-26T04:44:47.371Z,25.50
2023-01-26T04:47:18.619Z,25.60
2023-01-26T04:49:49.681Z,25.70
2023-01-26T04:52:20.689Z,25.80
2023-01-26T04:54:51.639Z,25.90
2023-01-26T04:57:24.319Z,25.90
2023-01-26T04:59:55.436Z,26.00
2023-01-26T05:02:27.126Z,26.10
2023-01-26T05:04:57.785Z,26.10
2023-01-26T05:07:29.112Z,26.20
2023-01-26T05:10:00.308Z,26.30
2023-01-26T05:12:37.383Z,26.30
2023-01-26T05:15:08.689Z,26.30
2023-01-26T05:17:40.019Z,26.30
2023-01-26T05:20:12.398Z,26.40
2023-01-26T05:22:46.284Z,26.50
2023-01-26T05:25:17.945Z,26.60
2023-01-26T05:30:20.144Z,26.70
2023-01-26T05:32:51.550Z,26.80
2023-01-26T05:35:23.036Z,26.70
2023-01-26T05:37:54.288Z,26.80
2023-01-26T05:40:26.056Z,26.80
2023-01-26T05:42:57.506Z,26.90
2023-01-26T05:45:28.671Z,27.00
2023-01-26T05:47:59.679Z,27.00
2023-01-26T05:50:30.826Z,27.00
2023-01-26T05:53:03.218Z,27.10
2023-01-26T05:55:34.631Z,27.20
2023-01-26T05:58:05.392Z,27.20
2023-01-26T06:00:36.368Z,27.30
2023-01-26T06:03:07.680Z,27.30
2023-01-26T06:05:39.933Z,27.30
2023-01-26T06:08:11.127Z,27.40
2023-01-26T06:10:42.373Z,27.40
2023-01-26T06:13:13.808Z,27.40
2023-01-26T06:15:48.256Z,27.50
2023-01-26T06:18:19.399Z,27.50
2023-01-26T06:21:11.079Z,27.50
2023-01-26T06:23:42.287Z,27.50
2023-01-26T06:26:13.206Z,27.60
2023-01-26T06:28:44.064Z,27.60
2023-01-26T06:31:15.922Z,27.60
2023-01-26T06:33:47.116Z,27.60
2023-01-26T06:36:18.751Z,27.60
2023-01-26T06:38:56.676Z,27.70
2023-01-26T06:41:27.125Z,27.70
2023-01-26T06:43:58.216Z,27.70
2023-01-26T06:46:29.792Z,27.70
2023-01-26T06:49:01.021Z,27.70
2023-01-26T06:51:49.330Z,27.80
2023-01-26T06:54:20.001Z,27.80
2023-01-26T06:56:51.231Z,27.90
2023-01-26T06:59:22.703Z,28.00
2023-01-26T07:01:53.959Z,28.00
2023-01-26T07:04:27.357Z,28.10
2023-01-26T07:06:58.186Z,28.10
2023-01-26T07:09:29.140Z,28.10
2023-01-26T07:11:59.907Z,28.10
2023-01-26T07:14:30.754Z,28.00
2023-01-26T07:17:01.836Z,28.10
2023-01-26T07:19:34.015Z,28.00
2023-01-26T07:22:06.682Z,28.00
2023-01-26T07:24:37.808Z,28.10
2023-01-26T07:27:08.665Z,28.10
2023-01-26T07:29:40.094Z,28.10
2023-01-26T07:32:10.873Z,28.10
2023-01-26T07:34:41.809Z,28.00
2023-01-26T07:37:12.776Z,28.00
2023-01-26T07:39:43.656Z,28.00
2023-01-26T07:42:14.898Z,28.00
2023-01-26T07:44:45.631Z,28.10
2023-01-26T07:47:20.674Z,28.10
2023-01-26T07:49:51.592Z,28.00
2023-01-26T07:52:22.294Z,27.90
2023-01-26T07:54:53.198Z,27.90
2023-01-26T07:57:24.056Z,27.90
2023-01-26T07:59:54.847Z,27.90
2023-01-26T08:02:28.562Z,27.90
2023-01-26T08:05:01.503Z,27.90
2023-01-26T08:07:32.368Z,27.80
2023-01-26T08:10:03.620Z,27.80
2023-01-26T08:12:39.480Z,27.80
2023-01-26T08:15:08.977Z,27.80
2023-01-26T08:17:39.940Z,27.80
2023-01-26T08:20:14.971Z,27.70
2023-01-26T08:22:46.197Z,27.70
2023-01-26T08:25:17.873Z,27.70
2023-01-26T08:27:49.201Z,27.80
2023-01-26T08:30:20.447Z,27.80
2023-01-26T08:32:51.127Z,27.80
2023-01-26T08:35:22.038Z,27.80
2023-01-26T08:37:52.766Z,27.80
2023-01-26T08:40:23.709Z,27.70
2023-01-26T08:42:55.882Z,27.70
2023-01-26T08:45:27.870Z,27.70
2023-01-26T08:47:59.038Z,27.70
2023-01-26T08:50:30.353Z,27.70
2023-01-26T08:53:01.846Z,27.70
2023-01-26T08:55:34.731Z,27.70
2023-01-26T08:58:06.122Z,27.70
2023-01-26T09:00:36.954Z,27.70
2023-01-26T09:03:09.246Z,27.70
2023-01-26T09:05:41.887Z,27.70
2023-01-26T09:08:13.434Z,27.70
2023-01-26T09:10:49.445Z,27.70
2023-01-26T09:13:20.132Z,27.60
2023-01-26T09:15:50.927Z,27.60
2023-01-26T09:18:21.804Z,27.60
2023-01-26T09:20:52.945Z,27.60
2023-01-26T09:23:24.827Z,27.60
2023-01-26T09:25:58.638Z,27.60
2023-01-26T09:28:30.501Z,27.60
2023-01-26T09:31:11.167Z,27.60
2023-01-26T09:33:44.842Z,27.60
2023-01-26T09:36:15.067Z,27.50
2023-01-26T09:38:46.431Z,27.50
2023-01-26T09:41:23.163Z,27.50
2023-01-26T09:44:08.638Z,27.50
2023-01-26T09:46:53.911Z,27.50
2023-01-26T09:49:35.836Z,27.40
2023-01-26T09:52:09.239Z,27.40
2023-01-26T09:54:42.443Z,27.40
2023-01-26T09:57:15.768Z,27.40
2023-01-26T09:59:55.497Z,27.40
2023-01-26T10:02:53.593Z,27.30
2023-01-26T10:05:48.457Z,27.30
2023-01-26T10:08:21.659Z,27.20
2023-01-26T10:11:03.879Z,27.20
2023-01-26T10:13:35.368Z,27.10
2023-01-26T10:16:14.244Z,27.10
2023-01-26T10:18:47.493Z,27.10
2023-01-26T10:21:20.463Z,27.00
2023-01-26T10:23:52.811Z,27.00
2023-01-26T10:26:26.611Z,27.00
2023-01-26T10:28:58.392Z,26.90
2023-01-26T10:31:31.781Z,26.90
2023-01-26T10:34:13.958Z,26.80
2023-01-26T10:36:51.647Z,26.80
2023-01-26T10:39:22.958Z,26.80
2023-01-26T10:42:07.158Z,26.70
2023-01-26T10:44:40.002Z,26.70
2023-01-26T10:47:19.525Z,26.60
2023-01-26T10:49:50.673Z,26.60
2023-01-26T10:52:27.959Z,26.50
2023-01-26T10:55:16.605Z,26.50
2023-01-26T10:57:47.815Z,26.40
2023-01-26T11:00:33.906Z,26.40
2023-01-26T11:03:10.345Z,26.30
2023-01-26T11:05:41.461Z,26.30
2023-01-26T11:08:31.235Z,26.30
2023-01-26T11:11:02.654Z,26.20
2023-01-26T11:13:33.518Z,26.10
2023-01-26T11:16:19.859Z,26.10
2023-01-26T11:19:01.838Z,26.10
2023-01-26T11:21:41.506Z,26.00
2023-01-26T11:24:33.495Z,26.00
2023-01-26T11:27:26.805Z,26.00
2023-01-26T11:30:05.804Z,25.90
2023-01-26T11:33:14.135Z,25.90
2023-01-26T11:36:02.175Z,25.80
2023-01-26T11:38:47.777Z,25.80
2023-01-26T11:41:21.022Z,25.80
2023-01-26T11:44:00.706Z,25.70
2023-01-26T11:46:47.955Z,25.80
2023-01-26T11:49:49.129Z,25.70
2023-01-26T11:52:38.733Z,25.70
2023-01-26T11:55:22.506Z,25.70
2023-01-26T11:57:57.913Z,25.60
2023-01-26T12:00:55.914Z,25.60
2023-01-26T12:03:29.182Z,25.60
2023-01-26T12:06:08.536Z,25.60
2023-01-26T12:08:47.937Z,25.60
2023-01-26T12:11:27.413Z,25.60
2023-01-26T12:14:28.012Z,25.50
2023-01-26T12:17:18.688Z,25.50
2023-01-26T12:20:07.040Z,25.50
2023-01-26T12:22:43.600Z,25.50
2023-01-26T12:25:38.060Z,25.50
2023-01-26T12:28:20.760Z,25.40
2023-01-26T12:30:54.453Z,25.50
2023-01-26T12:33:47.226Z,25.40
2023-01-26T12:36:28.997Z,25.40
2023-01-26T12:39:26.970Z,25.40
2023-01-26T12:42:30.307Z,25.40
2023-01-26T12:45:11.549Z,25.40
2023-01-26T12:51:20.740Z,25.30
2023-01-26T12:54:00.548Z,25.30
2023-01-26T12:56:49.002Z,25.30
2023-01-26T12:59:38.888Z,25.20
2023-01-26T13:01:57.766Z,25.20
2023-01-26T13:04:29.037Z,25.10
2023-01-26T13:07:08.360Z,25.00
2023-01-26T13:09:43.926Z,25.00
2023-01-26T13:12:17.230Z,24.90
2023-01-26T13:14:56.827Z,24.90
2023-01-26T13:17:30.501Z,24.90
2023-01-26T13:20:01.713Z,24.90
2023-01-26T13:22:43.674Z,24.90
2023-01-26T13:25:31.023Z,24.90
2023-01-26T13:28:11.058Z,24.90
2023-01-26T13:30:50.311Z,24.80
2023-01-26T13:33:29.750Z,24.80
2023-01-26T13:36:04.133Z,24.70
2023-01-26T13:38:43.810Z,24.70
2023-01-26T13:41:22.603Z,24.70
2023-01-26T13:44:02.891Z,24.70
2023-01-26T13:46:41.816Z,24.60
2023-01-26T13:49:43.665Z,24.60
2023-01-26T13:52:28.479Z,24.60
2023-01-26T13:54:59.935Z,24.60
2023-01-26T13:57:36.825Z,24.60
2023-01-26T14:00:07.395Z,24.60
2023-01-26T14:02:41.209Z,24.50
2023-01-26T14:05:16.396Z,24.50
2023-01-26T14:07:50.390Z,24.50
2023-01-26T14:10:25.072Z,24.40
2023-01-26T14:12:59.240Z,24.40
2023-01-26T14:15:36.898Z,24.40
2023-01-26T14:18:09.532Z,24.40
2023-01-26T14:20:42.035Z,24.30
2023-01-26T14:23:19.457Z,24.30
2023-01-26T14:26:06.424Z,24.30
2023-01-26T14:28:41.752Z,24.30
2023-01-26T14:31:26.858Z,24.30
2023-01-26T14:34:06.209Z,24.20
2023-01-26T14:36:41.436Z,24.20
2023-01-26T14:39:23.170Z,24.20
2023-01-26T14:41:54.482Z,24.20
2023-01-26T14:44:25.330Z,24.10
2023-01-26T14:47:01.160Z,24.10
2023-01-26T14:49:44.431Z,24.10
2023-01-26T14:52:26.599Z,24.10
2023-01-26T14:55:01.841Z,24.00
2023-01-26T14:57:36.199Z,24.00
2023-01-26T15:00:09.869Z,24.00
2023-01-26T15:02:43.861Z,23.90
2023-01-26T15:05:26.390Z,23.90
2023-01-26T15:08:04.456Z,23.90
2023-01-26T15:10:46.796Z,23.90
2023-01-26T15:13:29.307Z,23.80
2023-01-26T15:18:43.729Z,23.80
2023-01-26T15:21:17.399Z,23.70
2023-01-26T15:23:53.897Z,23.70
2023-01-26T15:26:36.058Z,23.70
2023-01-26T15:29:08.727Z,23.70
2023-01-26T15:31:42.889Z,23.70
2023-01-26T15:34:38.164Z,23.70
2023-01-26T15:37:34.993Z,23.60
2023-01-26T15:40:06.282Z,23.50
2023-01-26T15:42:37.068Z,23.50
2023-01-26T15:45:12.127Z,23.50
2023-01-26T15:47:43.093Z,23.50
2023-01-26T15:50:27.321Z,23.50
2023-01-26T15:52:48.661Z,23.40
2023-01-26T15:55:25.713Z,23.40
2023-01-26T15:57:57.712Z,23.40
2023-01-26T16:00:29.019Z,23.40
2023-01-26T16:03:00.005Z,23.40
2023-01-26T16:05:32.122Z,23.30
2023-01-26T16:08:02.882Z,23.30
2023-01-26T16:10:34.355Z,23.30
2023-01-26T16:13:09.193Z,23.20
2023-01-26T16:15:51.532Z,23.20
2023-01-26T16:18:23.659Z,23.20
2023-01-26T16:20:54.659Z,23.10
2023-01-26T16:23:29.475Z,23.10
2023-01-26T16:26:00.444Z,23.10
2023-01-26T16:28:31.394Z,23.00
2023-01-26T16:31:03.643Z,23.00
2023-01-26T16:33:34.451Z,23.00
2023-01-26T16:36:05.246Z,22.90
2023-01-26T16:38:36.032Z,22.90
2023-01-26T16:41:07.234Z,22.80
2023-01-26T16:43:39.193Z,22.80
2023-01-26T16:46:10.209Z,22.80
2023-01-26T16:48:42.668Z,22.80
2023-01-26T16:51:21.753Z,22.70
2023-01-26T16:53:53.038Z,22.80
2023-01-26T16:56:24.239Z,22.80
2023-01-26T16:58:55.045Z,22.80
2023-01-26T17:01:30.044Z,22.80
2023-01-26T17:04:00.988Z,22.80
2023-01-26T17:06:32.450Z,22.80
2023-01-26T17:09:03.107Z,22.80
2023-01-26T17:11:34.520Z,22.80
2023-01-26T17:14:05.515Z,22.80
2023-01-26T17:16:37.250Z,22.80
2023-01-26T17:19:09.271Z,22.80
2023-01-26T17:21:40.464Z,22.80
2023-01-26T17:24:11.896Z,22.80
2023-01-26T17:26:42.653Z,22.80
2023-01-26T17:29:14.572Z,22.80
2023-01-26T17:31:45.406Z,22.80
2023-01-26T17:34:16.312Z,22.80
2023-01-26T17:36:47.093Z,22.80
2023-01-26T17:39:19.326Z,22.80
2023-01-26T17:41:49.983Z,22.80
2023-01-26T17:44:20.692Z,22.80
2023-01-26T17:46:51.553Z,22.80
2023-01-26T17:49:22.699Z,22.80
2023-01-26T17:51:53.572Z,22.80
2023-01-26T17:54:24.391Z,22.80
2023-01-26T17:56:56.510Z,22.80
2023-01-26T17:59:29.033Z,22.80
2023-01-26T18:01:59.803Z,22.70
2023-01-26T18:04:34.295Z,22.70
2023-01-26T18:07:04.967Z,22.70
2023-01-26T18:09:35.635Z,22.70
2023-01-26T18:12:06.988Z,22.70
2023-01-26T18:14:37.815Z,22.60
2023-01-26T18:17:11.171Z,22.60
2023-01-26T18:19:41.960Z,22.60
2023-01-26T18:22:12.748Z,22.60
2023-01-26T18:24:43.605Z,22.60
2023-01-26T18:27:14.269Z,22.60
2023-01-26T18:29:45.057Z,22.60
2023-01-26T18:32:15.839Z,22.50
2023-01-26T18:34:46.601Z,22.50
2023-01-26T18:37:17.261Z,22.50
2023-01-26T18:42:50.375Z,22.40
2023-01-26T18:45:21.069Z,22.40
2023-01-26T18:47:52.968Z,22.40
2023-01-26T18:50:23.735Z,22.40
2023-01-26T18:52:54.791Z,22.30
2023-01-26T18:55:25.750Z,22.30
2023-01-26T18:57:56.523Z,22.30
2023-01-26T19:00:27.343Z,22.30
2023-01-26T19:02:58.116Z,22.30
2023-01-26T19:05:29.291Z,22.20
2023-01-26T19:08:01.462Z,22.30
2023-01-26T19:10:32.197Z,22.20
2023-01-26T19:13:03.274Z,22.20
2023-01-26T19:15:33.975Z,22.10
2023-01-26T19:18:05.471Z,22.10
2023-01-26T19:20:36.285Z,22.10
2023-01-26T19:23:07.013Z,22.10
2023-01-26T19:25:39.489Z,22.10
2023-01-26T19:28:11.154Z,22.10
2023-01-26T19:30:41.974Z,22.10
2023-01-26T19:33:29.209Z,22.10
2023-01-26T19:36:01.417Z,22.10
2023-01-26T19:38:32.303Z,22.10
2023-01-26T19:41:04.154Z,22.10
2023-01-26T19:43:34.956Z,22.10
2023-01-26T19:46:06.680Z,22.10
2023-01-26T19:48:37.743Z,22.10
2023-01-26T19:51:11.085Z,22.00
2023-01-26T19:53:44.290Z,22.00
2023-01-26T19:56:20.197Z,22.00
2023-01-26T19:58:59.478Z,22.00
2023-01-26T20:01:32.029Z,22.00
2023-01-26T20:04:05.560Z,22.00
2023-01-26T20:06:44.722Z,22.00
2023-01-26T20:09:15.466Z,22.00
2023-01-26T20:11:46.162Z,22.00
2023-01-26T20:14:17.371Z,22.00
2023-01-26T20:16:48.181Z,22.00
2023-01-26T20:19:28.551Z,21.90
2023-01-26T20:22:00.007Z,21.90
2023-01-26T20:24:30.938Z,21.90
2023-01-26T20:27:01.787Z,21.90
2023-01-26T20:29:33.325Z,21.90
2023-01-26T20:32:05.276Z,21.80
2023-01-26T20:34:36.031Z,21.80
2023-01-26T20:37:06.828Z,21.80
2023-01-26T20:39:37.749Z,21.80
2023-01-26T20:42:09.040Z,21.80
2023-01-26T20:44:43.076Z,21.80
2023-01-26T20:47:12.803Z,21.80
2023-01-26T20:49:43.725Z,21.80
2023-01-26T20:52:14.661Z,21.80
2023-01-26T20:54:45.583Z,21.70
2023-01-26T20:57:16.748Z,21.70
2023-01-26T20:59:47.687Z,21.70
2023-01-26T21:02:19.147Z,21.70
2023-01-26T21:04:50.195Z,21.70
2023-01-26T21:07:21.005Z,21.60
2023-01-26T21:09:51.900Z,21.60
2023-01-26T21:12:22.718Z,21.60
2023-01-26T21:14:53.524Z,21.60
2023-01-26T21:17:25.550Z,21.60
2023-01-26T21:19:56.377Z,21.60
2023-01-26T21:22:27.276Z,21.60
2023-01-26T21:24:57.953Z,21.60
2023-01-26T21:27:28.810Z,21.60
2023-01-26T21:29:59.546Z,21.60
2023-01-26T21:32:30.484Z,21.50
2023-01-26T21:35:01.247Z,21.50
2023-01-26T21:37:31.916Z,21.40
2023-01-26T21:40:02.797Z,21.40
2023-01-26T21:42:33.658Z,21.30
2023-01-26T21:45:22.158Z,21.20
2023-01-26T21:47:54.287Z,21.10
2023-01-26T21:50:26.333Z,21.10
2023-01-26T21:53:00.143Z,21.00
2023-01-26T21:55:30.826Z,20.90
2023-01-26T21:58:20.536Z,20.90
2023-01-26T22:00:51.207Z,20.80
2023-01-26T22:03:22.010Z,20.80
2023-01-26T22:05:56.056Z,20.80
2023-01-26T22:08:26.778Z,20.90
2023-01-26T22:11:00.696Z,20.90
2023-01-26T22:13:31.556Z,20.90
2023-01-26T22:16:06.575Z,21.00
2023-01-26T22:18:37.795Z,21.00
2023-01-26T22:21:08.950Z,21.00
2023-01-26T22:23:41.727Z,21.00
2023-01-26T22:26:14.696Z,21.00
2023-01-26T22:28:46.993Z,21.00
2023-01-26T22:31:18.586Z,21.00
2023-01-26T22:33:49.382Z,21.10
2023-01-26T22:36:20.353Z,21.10
2023-01-26T22:38:51.747Z,21.00
2023-01-26T22:41:31.144Z,21.00
2023-01-26T22:44:02.928Z,21.00
2023-01-26T22:46:34.083Z,21.00
2023-01-26T22:49:06.031Z,21.00
2023-01-26T22:51:38.307Z,21.00
2023-01-26T22:54:09.516Z,21.00
2023-01-26T22:56:40.394Z,21.00
2023-01-26T22:59:11.091Z,20.90
2023-01-26T23:01:41.799Z,20.90
2023-01-26T23:04:13.021Z,20.90
2023-01-26T23:06:43.777Z,20.90
2023-01-26T23:09:14.495Z,20.80
2023-01-26T23:11:45.177Z,20.80
2023-01-26T23:14:16.061Z,20.80
2023-01-26T23:16:47.188Z,20.80
2023-01-26T23:19:18.652Z,20.80
2023-01-26T23:21:49.502Z,20.80
2023-01-26T23:24:20.420Z,20.70
2023-01-26T23:26:51.204Z,20.70
2023-01-26T23:29:21.928Z,20.70
2023-01-26T23:31:52.952Z,20.70
2023-01-26T23:34:23.812Z,20.70
2023-01-26T23:36:54.504Z,20.70
2023-01-26T23:39:25.384Z,20.70
2023-01-26T23:41:56.084Z,20.70
2023-01-26T23:44:26.821Z,20.60
2023-01-26T23:46:57.639Z,20.70
2023-01-26T23:49:28.364Z,20.60
2023-01-26T23:52:01.796Z,20.60
2023-01-26T23:54:32.650Z,20.60
2023-01-26T23:57:03.343Z,20.50
2023-01-26T23:59:34.093Z,20.50
